createdAt,value
2019-02-22T00:01:56.762Z,44.10
2019-02-22T00:04:25.202Z,49.30
2019-02-22T00:06:53.640Z,49.70
2019-02-22T00:09:49.013Z,49.80
2019-02-22T00:12:11.606Z,45.00
2019-02-22T00:14:40.356Z,38.10
2019-02-22T00:17:08.866Z,39.90
2019-02-22T00:19:37.303Z,37.70
2019-02-22T00:22:05.764Z,34.90
2019-02-22T00:24:34.207Z,33.90
2019-02-22T00:27:02.750Z,37.00
2019-02-22T00:29:50.536Z,36.70
2019-02-22T00:32:18.999Z,43.90
2019-02-22T00:34:47.517Z,50.80
2019-02-22T00:37:16.206Z,52.40
2019-02-22T00:39:44.669Z,54.90
2019-02-22T00:42:13.112Z,50.50
2019-02-22T00:44:41.587Z,49.60
2019-02-22T00:47:10.121Z,48.90
2019-02-22T00:49:38.579Z,50.70
2019-02-22T00:52:26.390Z,47.70
2019-02-22T00:54:54.838Z,46.80
2019-02-22T00:57:23.377Z,43.90
2019-02-22T00:59:51.883Z,43.50
2019-02-22T01:02:39.684Z,44.00
2019-02-22T01:05:11.121Z,47.80
2019-02-22T01:07:39.671Z,46.30
2019-02-22T01:10:08.179Z,50.20
2019-02-22T01:12:36.615Z,48.40
2019-02-22T01:15:06.519Z,50.80
2019-02-22T01:17:34.967Z,55.10
2019-02-22T01:20:03.921Z,55.10
2019-02-22T01:22:32.375Z,56.40
2019-02-22T01:25:00.891Z,61.70
2019-02-22T01:27:29.495Z,59.80
2019-02-22T01:29:57.942Z,65.90
2019-02-22T01:32:26.425Z,66.80
2019-02-22T01:34:54.873Z,66.10
2019-02-22T01:37:23.394Z,67.00
2019-02-22T01:39:51.936Z,64.60
2019-02-22T01:42:20.380Z,64.30
2019-02-22T01:44:48.910Z,69.70
2019-02-22T01:47:17.351Z,70.00
2019-02-22T01:49:45.820Z,63.70
2019-02-22T01:52:14.267Z,67.00
2019-02-22T01:54:42.726Z,62.70
2019-02-22T01:57:11.175Z,59.90
2019-02-22T01:59:39.720Z,59.10
2019-02-22T02:02:08.159Z,58.10
2019-02-22T02:04:36.617Z,57.20
2019-02-22T02:07:05.398Z,55.90
2019-02-22T02:09:33.935Z,52.70
2019-02-22T02:12:03.674Z,52.30
2019-02-22T02:14:32.446Z,52.00
2019-02-22T02:17:00.891Z,52.50
2019-02-22T02:19:29.938Z,55.90
2019-02-22T02:22:18.677Z,55.30
2019-02-22T02:24:47.122Z,53.60
2019-02-22T02:27:15.562Z,53.30
2019-02-22T02:29:44.027Z,52.20
2019-02-22T02:32:12.462Z,57.30
2019-02-22T02:34:40.926Z,56.80
2019-02-22T02:37:28.712Z,56.60
2019-02-22T02:39:57.178Z,47.10
2019-02-22T02:42:25.626Z,51.20
2019-02-22T02:44:54.110Z,54.20
2019-02-22T02:47:41.897Z,54.90
2019-02-22T02:50:13.434Z,52.70
2019-02-22T02:52:41.875Z,49.90
2019-02-22T02:55:37.512Z,49.30
2019-02-22T02:58:13.935Z,47.90
2019-02-22T03:00:42.471Z,44.20
2019-02-22T03:03:11.000Z,42.20
2019-02-22T03:05:50.096Z,37.30
2019-02-22T03:08:18.826Z,47.90
2019-02-22T03:10:47.286Z,46.80
2019-02-22T03:13:15.821Z,51.30
2019-02-22T03:15:44.371Z,54.20
2019-02-22T03:18:12.975Z,52.70
2019-02-22T03:20:41.434Z,49.30
2019-02-22T03:23:09.952Z,46.60
2019-02-22T03:25:38.479Z,44.20
2019-02-22T03:28:07.049Z,44.20
2019-02-22T03:30:35.579Z,47.50
2019-02-22T03:33:04.131Z,50.00
2019-02-22T03:35:32.705Z,54.40
2019-02-22T03:38:01.276Z,57.40
2019-02-22T03:40:29.797Z,55.90
2019-02-22T03:42:58.382Z,53.70
2019-02-22T03:45:26.912Z,57.70
2019-02-22T03:47:55.454Z,57.60
2019-02-22T03:50:43.240Z,58.80
2019-02-22T03:53:13.345Z,55.70
2019-02-22T03:56:01.052Z,54.50
2019-02-22T03:58:29.627Z,58.20
2019-02-22T04:00:58.130Z,62.30
2019-02-22T04:03:26.597Z,63.20
2019-02-22T04:06:14.503Z,65.50
2019-02-22T04:08:43.039Z,70.10
2019-02-22T04:11:11.490Z,70.20
2019-02-22T04:13:40.071Z,70.30
2019-02-22T04:16:08.532Z,70.80
2019-02-22T04:18:37.315Z,73.70
2019-02-22T04:21:05.791Z,75.90
2019-02-22T04:23:34.320Z,78.40
2019-02-22T04:26:22.119Z,80.40
2019-02-22T04:28:54.270Z,80.50
2019-02-22T04:31:22.716Z,79.60
2019-02-22T04:33:51.175Z,77.90
2019-02-22T04:36:19.615Z,76.70
2019-02-22T04:38:48.082Z,69.90
2019-02-22T04:41:16.529Z,63.70
2019-02-22T04:43:45.046Z,66.70
2019-02-22T04:46:13.526Z,73.70
2019-02-22T04:48:41.969Z,76.70
2019-02-22T04:51:10.437Z,75.20
2019-02-22T04:53:39.376Z,76.00
2019-02-22T04:56:08.453Z,79.20
2019-02-22T04:58:36.980Z,77.70
2019-02-22T05:01:05.450Z,76.80
2019-02-22T05:03:33.924Z,77.40
2019-02-22T05:06:02.364Z,72.10
2019-02-22T05:08:30.806Z,72.50
2019-02-22T05:10:59.279Z,73.40
2019-02-22T05:13:27.793Z,70.70
2019-02-22T05:15:56.282Z,73.00
2019-02-22T05:18:24.732Z,72.30
2019-02-22T05:20:53.193Z,73.40
2019-02-22T05:23:21.662Z,75.50
2019-02-22T05:25:50.171Z,84.90
2019-02-22T05:28:18.696Z,84.30
2019-02-22T05:30:47.257Z,76.10
2019-02-22T05:33:15.704Z,73.90
2019-02-22T05:35:44.240Z,72.00
2019-02-22T05:38:12.750Z,66.80
2019-02-22T05:41:00.576Z,69.60
2019-02-22T05:43:29.085Z,67.90
2019-02-22T05:45:57.663Z,71.80
2019-02-22T05:48:45.532Z,73.00
2019-02-22T05:51:13.974Z,66.20
2019-02-22T05:53:42.458Z,65.50
2019-02-22T05:56:10.903Z,69.80
2019-02-22T05:58:39.419Z,76.60
2019-02-22T06:01:07.888Z,81.00
2019-02-22T06:03:36.411Z,84.90
2019-02-22T06:06:04.884Z,86.00
2019-02-22T06:08:33.391Z,88.70
2019-02-22T06:11:01.924Z,85.50
2019-02-22T06:13:30.459Z,86.60
2019-02-22T06:15:58.990Z,84.70
2019-02-22T06:18:27.441Z,83.90
2019-02-22T06:20:55.976Z,83.50
2019-02-22T06:23:24.536Z,82.30
2019-02-22T06:26:12.426Z,82.70
2019-02-22T06:28:40.940Z,84.00
2019-02-22T06:31:09.395Z,87.20
2019-02-22T06:33:37.922Z,85.30
2019-02-22T06:36:15.175Z,85.10
2019-02-22T06:38:46.409Z,84.50
2019-02-22T06:41:13.805Z,84.80
2019-02-22T06:44:01.677Z,85.50
2019-02-22T06:46:50.380Z,83.00
2019-02-22T06:49:18.926Z,86.40
2019-02-22T06:52:06.703Z,87.10
2019-02-22T06:54:35.164Z,88.10
2019-02-22T06:57:03.616Z,88.20
2019-02-22T06:59:32.078Z,85.50
2019-02-22T07:02:00.536Z,85.60
2019-02-22T07:04:29.003Z,85.60
2019-02-22T07:06:57.450Z,88.60
2019-02-22T07:09:25.915Z,85.70
2019-02-22T07:11:55.999Z,85.30
2019-02-22T07:14:24.442Z,86.20
2019-02-22T07:16:52.906Z,85.50
2019-02-22T07:19:40.691Z,85.00
2019-02-22T07:22:21.687Z,86.70
2019-02-22T07:24:50.251Z,87.90
2019-02-22T07:27:18.694Z,84.90
2019-02-22T07:29:47.167Z,87.40
2019-02-22T07:32:15.608Z,87.60
2019-02-22T07:34:44.155Z,87.50
2019-02-22T07:37:12.600Z,89.20
2019-02-22T07:39:41.114Z,88.10
2019-02-22T07:42:09.661Z,89.00
2019-02-22T07:44:57.523Z,89.80
2019-02-22T07:47:26.000Z,90.90
2019-02-22T07:49:54.442Z,87.90
2019-02-22T07:52:22.888Z,90.00
2019-02-22T07:54:51.531Z,88.10
2019-02-22T07:57:40.280Z,83.60
2019-02-22T08:00:12.274Z,75.90
2019-02-22T08:02:40.787Z,78.80
2019-02-22T08:05:17.231Z,84.30
2019-02-22T08:07:45.691Z,79.70
2019-02-22T08:10:33.495Z,76.50
2019-02-22T08:13:02.027Z,81.90
2019-02-22T08:15:30.471Z,85.00
2019-02-22T08:17:58.931Z,87.00
2019-02-22T08:20:46.719Z,85.60
2019-02-22T08:23:15.172Z,86.80
2019-02-22T08:25:43.615Z,79.80
2019-02-22T08:28:12.081Z,76.10
2019-02-22T08:30:40.522Z,71.30
2019-02-22T08:33:08.970Z,68.20
2019-02-22T08:35:37.434Z,57.60
2019-02-22T08:38:05.881Z,54.20
2019-02-22T08:40:34.337Z,49.50
2019-02-22T08:43:02.875Z,43.00
2019-02-22T08:45:31.333Z,30.50
2019-02-22T08:47:59.796Z,27.20
2019-02-22T08:50:28.238Z,12.60
2019-02-22T08:52:56.688Z,3.90
2019-02-22T08:55:26.301Z,5.40
2019-02-22T08:57:54.745Z,1.00
2019-02-22T09:00:23.182Z,1.00
2019-02-22T09:02:51.724Z,1.00
2019-02-22T09:05:20.241Z,1.00
2019-02-22T09:07:49.047Z,1.00
2019-02-22T09:10:17.579Z,1.00
2019-02-22T09:12:46.027Z,1.00
2019-02-22T09:15:14.515Z,1.00
2019-02-22T09:17:42.975Z,1.00
2019-02-22T09:20:12.463Z,1.00
2019-02-22T09:22:40.902Z,1.00
2019-02-22T09:25:09.688Z,99.90
2019-02-22T09:27:38.206Z,1.00
2019-02-22T09:30:09.807Z,99.90
2019-02-22T09:35:09.042Z,1.00
2019-02-22T09:37:37.819Z,1.00
2019-02-22T09:40:09.540Z,99.90
2019-02-22T09:42:38.002Z,1.00
2019-02-22T09:45:09.748Z,99.90
2019-02-22T09:47:38.274Z,21.20
2019-02-22T09:50:16.582Z,1.00
2019-02-22T09:55:13.696Z,99.90
2019-02-22T09:57:42.206Z,13.70
2019-02-22T10:00:16.735Z,1.00
2019-02-22T10:02:45.220Z,1.00
2019-02-22T10:05:14.692Z,99.90
2019-02-22T10:07:43.134Z,99.90
2019-02-22T10:10:11.913Z,99.90
2019-02-22T10:15:09.825Z,99.90
2019-02-22T10:17:38.282Z,1.00
2019-02-22T10:20:09.129Z,1.00
2019-02-22T10:22:37.662Z,1.00
2019-02-22T10:25:07.045Z,1.00
2019-02-22T10:27:35.479Z,1.00
2019-02-22T10:30:05.475Z,1.00
2019-02-22T10:32:33.912Z,1.00
2019-02-22T10:35:02.382Z,1.00
2019-02-22T10:37:30.896Z,1.00
2019-02-22T10:39:59.341Z,1.00
2019-02-22T10:42:47.206Z,1.00
2019-02-22T10:45:15.643Z,1.00
2019-02-22T10:47:44.104Z,1.00
2019-02-22T10:50:12.614Z,1.00
2019-02-22T10:52:41.082Z,1.00
2019-02-22T10:55:11.759Z,1.00
2019-02-22T10:57:40.193Z,1.00
2019-02-22T11:00:12.203Z,1.00
2019-02-22T11:02:40.911Z,1.00
2019-02-22T11:05:09.806Z,1.00
2019-02-22T11:07:38.241Z,1.00
2019-02-22T11:10:10.010Z,1.00
2019-02-22T11:12:38.519Z,1.00
2019-02-22T11:15:09.388Z,1.00
2019-02-22T11:17:37.847Z,1.00
2019-02-22T11:20:12.351Z,1.00
2019-02-22T11:22:40.818Z,1.00
2019-02-22T11:25:16.430Z,1.00
2019-02-22T11:27:44.940Z,1.00
2019-02-22T11:30:16.886Z,1.00
2019-02-22T11:32:45.400Z,1.00
2019-02-22T11:35:13.931Z,1.00
2019-02-22T11:37:42.388Z,1.00
2019-02-22T11:40:11.675Z,1.00
2019-02-22T11:42:40.158Z,1.00
2019-02-22T11:45:09.834Z,1.00
2019-02-22T11:47:38.425Z,1.00
2019-02-22T11:50:10.886Z,1.00
2019-02-22T11:52:39.394Z,1.00
2019-02-22T11:55:11.650Z,1.00
2019-02-22T11:57:40.227Z,1.00
2019-02-22T12:00:20.574Z,1.00
2019-02-22T12:02:49.143Z,1.00
2019-02-22T12:05:17.646Z,1.00
2019-02-22T12:07:46.180Z,1.00
2019-02-22T12:10:14.615Z,1.00
2019-02-22T12:12:43.119Z,1.00
2019-02-22T12:15:12.956Z,1.00
2019-02-22T12:17:41.570Z,1.00
2019-02-22T12:20:11.254Z,1.00
2019-02-22T12:22:39.754Z,1.00
2019-02-22T12:25:13.011Z,1.00
2019-02-22T12:27:41.511Z,1.00
2019-02-22T12:30:12.620Z,1.00
2019-02-22T12:32:41.123Z,1.00
2019-02-22T12:35:09.634Z,1.00
2019-02-22T12:37:57.431Z,1.00
2019-02-22T12:40:25.944Z,1.00
2019-02-22T12:42:54.417Z,1.00
2019-02-22T12:45:22.926Z,1.00
2019-02-22T12:47:57.112Z,1.00
2019-02-22T12:50:25.565Z,1.00
2019-02-22T12:52:53.994Z,1.00
2019-02-22T12:55:41.796Z,1.00
2019-02-22T12:58:10.238Z,1.00
2019-02-22T13:00:38.746Z,1.00
2019-02-22T13:03:26.536Z,1.00
2019-02-22T13:05:54.975Z,1.00
2019-02-22T13:08:23.438Z,1.00
2019-02-22T13:10:52.010Z,1.00
2019-02-22T13:13:20.469Z,1.00
2019-02-22T13:15:48.913Z,1.00
2019-02-22T13:18:17.376Z,1.00
2019-02-22T13:20:45.809Z,1.00
2019-02-22T13:23:14.268Z,1.00
2019-02-22T13:25:42.703Z,1.00
2019-02-22T13:28:11.162Z,1.00
2019-02-22T13:30:39.601Z,1.00
2019-02-22T13:33:08.206Z,1.00
2019-02-22T13:35:37.042Z,1.00
2019-02-22T13:38:05.651Z,1.00
2019-02-22T13:40:34.178Z,1.00
2019-02-22T13:43:05.249Z,1.00
2019-02-22T13:45:32.947Z,1.00
2019-02-22T13:48:01.458Z,1.00
2019-02-22T13:50:30.035Z,1.00
2019-02-22T13:52:58.502Z,1.00
2019-02-22T13:55:26.946Z,1.00
2019-02-22T13:57:55.411Z,1.00
2019-02-22T14:00:23.851Z,1.00
2019-02-22T14:02:52.411Z,1.00
2019-02-22T14:05:20.850Z,1.00
2019-02-22T14:07:53.573Z,1.00
2019-02-22T14:10:22.004Z,1.00
2019-02-22T14:12:50.512Z,1.00
2019-02-22T14:15:19.129Z,1.00
2019-02-22T14:17:47.635Z,1.00
2019-02-22T14:20:16.140Z,1.00
2019-02-22T14:22:57.191Z,1.00
2019-02-22T14:25:25.727Z,1.00
2019-02-22T14:27:54.172Z,1.00
2019-02-22T14:30:22.850Z,1.00
2019-02-22T14:32:51.318Z,1.00
2019-02-22T14:35:19.822Z,1.00
2019-02-22T14:37:48.430Z,1.00
2019-02-22T14:40:16.994Z,1.00
2019-02-22T14:42:45.501Z,1.00
2019-02-22T14:45:14.121Z,1.00
2019-02-22T14:47:42.547Z,1.00
2019-02-22T14:50:14.022Z,1.00
2019-02-22T14:52:42.459Z,1.00
2019-02-22T14:55:11.133Z,1.00
2019-02-22T14:57:58.926Z,1.00
2019-02-22T15:00:27.430Z,1.00
2019-02-22T15:02:55.890Z,1.00
2019-02-22T15:05:24.327Z,1.00
2019-02-22T15:08:12.204Z,1.00
2019-02-22T15:10:40.643Z,1.00
2019-02-22T15:13:12.672Z,1.00
2019-02-22T15:15:43.356Z,1.00
2019-02-22T15:18:11.799Z,1.00
2019-02-22T15:20:40.281Z,1.00
2019-02-22T15:23:08.719Z,1.00
2019-02-22T15:25:37.186Z,1.00
2019-02-22T15:28:05.614Z,1.00
2019-02-22T15:30:34.051Z,1.00
2019-02-22T15:33:02.504Z,1.00
2019-02-22T15:35:31.045Z,1.00
2019-02-22T15:37:59.563Z,1.00
2019-02-22T15:40:28.011Z,1.00
2019-02-22T15:42:56.555Z,1.00
2019-02-22T15:45:25.193Z,1.00
2019-02-22T15:47:53.705Z,1.00
2019-02-22T15:50:22.244Z,1.00
2019-02-22T15:52:51.036Z,1.00
2019-02-22T15:55:19.531Z,1.00
2019-02-22T15:57:48.067Z,1.00
2019-02-22T16:00:31.442Z,1.00
2019-02-22T16:02:59.879Z,1.00
2019-02-22T16:05:30.031Z,1.00
2019-02-22T16:07:58.497Z,1.00
2019-02-22T16:10:27.131Z,1.00
2019-02-22T16:12:55.680Z,1.00
2019-02-22T16:15:24.323Z,1.00
2019-02-22T16:17:52.762Z,1.00
2019-02-22T16:20:21.219Z,1.00
2019-02-22T16:22:51.389Z,1.00
2019-02-22T16:25:20.371Z,1.00
2019-02-22T16:27:48.933Z,1.20
2019-02-22T16:30:19.836Z,99.90
2019-02-22T16:32:48.355Z,99.90
2019-02-22T16:35:16.878Z,99.90
2019-02-22T16:37:45.346Z,99.90
2019-02-22T16:40:13.942Z,99.90
2019-02-22T16:42:42.389Z,99.90
2019-02-22T16:45:12.089Z,99.90
2019-02-22T16:47:40.801Z,1.00
2019-02-22T16:50:11.324Z,32.50
2019-02-22T16:52:39.902Z,99.90
2019-02-22T16:55:13.671Z,1.00
2019-02-22T16:57:42.208Z,99.90
2019-02-22T17:00:12.850Z,1.00
2019-02-22T17:02:41.295Z,99.90
2019-02-22T17:05:12.108Z,1.00
2019-02-22T17:07:40.550Z,1.00
2019-02-22T17:10:10.743Z,1.00
2019-02-22T17:12:39.251Z,1.00
2019-02-22T17:15:12.527Z,1.00
2019-02-22T17:17:40.969Z,1.00
2019-02-22T17:20:14.498Z,1.00
2019-02-22T17:22:43.028Z,62.30
2019-02-22T17:25:14.191Z,76.50
2019-02-22T17:27:42.709Z,1.00
2019-02-22T17:30:17.052Z,1.00
2019-02-22T17:32:45.485Z,98.10
2019-02-22T17:35:14.226Z,1.00
2019-02-22T17:37:42.786Z,1.00
2019-02-22T17:40:28.040Z,99.90
2019-02-22T17:42:56.539Z,99.90
2019-02-22T17:45:25.017Z,99.90
2019-02-22T17:47:53.529Z,1.00
2019-02-22T17:50:21.990Z,99.90
2019-02-22T17:52:50.430Z,1.00
2019-02-22T17:55:18.899Z,1.00
2019-02-22T17:57:47.339Z,23.00
2019-02-22T18:00:18.463Z,99.90
2019-02-22T18:02:47.046Z,99.90
2019-02-22T18:05:15.514Z,99.90
2019-02-22T18:07:43.950Z,99.90
2019-02-22T18:10:12.674Z,99.90
2019-02-22T18:12:41.369Z,69.50
2019-02-22T18:15:12.179Z,98.80
2019-02-22T18:17:42.448Z,4.90
2019-02-22T18:20:10.936Z,99.90
2019-02-22T18:22:39.519Z,99.90
2019-02-22T18:25:09.336Z,99.90
2019-02-22T18:27:37.784Z,81.60
2019-02-22T18:30:14.770Z,1.00
2019-02-22T18:32:43.199Z,99.90
2019-02-22T18:35:15.913Z,99.90
2019-02-22T18:37:44.423Z,23.40
2019-02-22T18:40:24.900Z,47.90
2019-02-22T18:42:53.322Z,99.90
2019-02-22T18:45:21.925Z,99.90
2019-02-22T18:47:50.549Z,99.90
2019-02-22T18:50:19.117Z,99.90
2019-02-22T18:52:47.594Z,99.90
2019-02-22T18:55:16.184Z,1.00
2019-02-22T18:57:44.734Z,1.00
2019-02-22T19:00:16.591Z,1.00
2019-02-22T19:02:45.040Z,1.00
2019-02-22T19:05:13.474Z,99.90
2019-02-22T19:07:41.926Z,1.00
2019-02-22T19:10:12.488Z,1.00
2019-02-22T19:13:00.352Z,99.90
2019-02-22T19:15:28.796Z,1.00
2019-02-22T19:17:57.274Z,1.00
2019-02-22T19:20:25.721Z,1.00
2019-02-22T19:22:54.258Z,1.00
2019-02-22T19:25:22.767Z,1.00
2019-02-22T19:28:19.878Z,1.00
2019-02-22T19:30:48.326Z,1.00
2019-02-22T19:33:16.791Z,1.00
2019-02-22T19:36:04.628Z,1.00
2019-02-22T19:38:33.086Z,1.00
2019-02-22T19:41:01.527Z,1.00
2019-02-22T19:43:29.996Z,1.00
2019-02-22T19:45:58.432Z,1.00
2019-02-22T19:48:26.890Z,1.00
2019-02-22T19:51:14.667Z,1.00
2019-02-22T19:53:43.123Z,1.00
2019-02-22T19:56:11.566Z,1.00
2019-02-22T19:58:40.034Z,1.00
2019-02-22T20:01:08.482Z,1.00
2019-02-22T20:03:37.004Z,1.00
2019-02-22T20:06:05.489Z,1.00
2019-02-22T20:08:33.980Z,1.00
2019-02-22T20:11:21.843Z,1.00
2019-02-22T20:13:50.282Z,1.00
2019-02-22T20:16:18.822Z,1.00
2019-02-22T20:18:47.336Z,1.00
2019-02-22T20:21:15.789Z,1.00
2019-02-22T20:23:44.226Z,1.00
2019-02-22T20:26:12.687Z,1.00
2019-02-22T20:28:41.138Z,1.00
2019-02-22T20:31:19.580Z,1.00
2019-02-22T20:33:39.762Z,1.00
2019-02-22T20:36:08.363Z,1.00
2019-02-22T20:38:36.807Z,1.00
2019-02-22T20:41:05.258Z,1.00
2019-02-22T20:43:33.770Z,1.00
2019-02-22T20:46:02.398Z,1.00
2019-02-22T20:48:30.839Z,1.00
2019-02-22T20:50:59.302Z,1.00
2019-02-22T20:53:27.751Z,1.00
2019-02-22T20:55:56.211Z,1.00
2019-02-22T20:58:24.648Z,1.00
2019-02-22T21:00:53.119Z,1.00
2019-02-22T21:03:21.551Z,1.00
2019-02-22T21:05:50.011Z,1.00
2019-02-22T21:08:18.454Z,1.00
2019-02-22T21:10:46.888Z,1.00
2019-02-22T21:13:15.339Z,1.00
2019-02-22T21:15:43.778Z,1.00
2019-02-22T21:18:16.199Z,1.00
2019-02-22T21:20:42.698Z,1.00
2019-02-22T21:23:11.146Z,1.00
2019-02-22T21:25:39.610Z,1.00
2019-02-22T21:28:08.045Z,1.00
2019-02-22T21:30:36.505Z,1.00
2019-02-22T21:33:05.018Z,1.00
2019-02-22T21:35:33.475Z,1.00
2019-02-22T21:38:01.911Z,1.00
2019-02-22T21:40:30.352Z,1.00
2019-02-22T21:42:58.799Z,1.00
2019-02-22T21:45:27.248Z,1.00
2019-02-22T21:47:55.893Z,1.00
2019-02-22T21:50:24.383Z,1.00
2019-02-22T21:52:52.818Z,1.00
2019-02-22T21:55:21.279Z,1.00
2019-02-22T21:57:49.724Z,1.00
2019-02-22T22:00:20.387Z,1.00
2019-02-22T22:02:48.826Z,1.00
2019-02-22T22:05:17.359Z,1.00
2019-02-22T22:07:45.805Z,1.00
2019-02-22T22:10:14.238Z,1.00
2019-02-22T22:12:42.688Z,1.00
2019-02-22T22:15:14.953Z,1.00
2019-02-22T22:17:43.555Z,1.00
2019-02-22T22:20:11.990Z,1.00
2019-02-22T22:22:40.422Z,1.00
2019-02-22T22:25:11.679Z,1.00
2019-02-22T22:27:40.122Z,1.00
2019-02-22T22:30:13.380Z,1.00
2019-02-22T22:32:41.819Z,1.00
2019-02-22T22:35:12.022Z,1.00
2019-02-22T22:37:40.454Z,1.00
2019-02-22T22:40:10.333Z,1.00
2019-02-22T22:42:38.940Z,1.00
2019-02-22T22:45:10.350Z,1.00
2019-02-22T22:47:38.894Z,1.00
2019-02-22T22:50:09.768Z,1.00
2019-02-22T22:52:38.278Z,1.00
2019-02-22T22:55:08.144Z,1.00
2019-02-22T22:57:36.972Z,1.00
2019-02-22T23:00:11.238Z,1.00
2019-02-22T23:02:39.814Z,1.00
2019-02-22T23:05:08.591Z,1.00
2019-02-22T23:07:37.042Z,1.00
2019-02-22T23:10:06.587Z,1.00
2019-02-22T23:12:35.041Z,1.00
2019-02-22T23:15:03.737Z,1.00
2019-02-22T23:17:32.175Z,1.00
2019-02-22T23:20:00.635Z,1.00
2019-02-22T23:22:29.142Z,1.00
2019-02-22T23:24:57.599Z,1.00
2019-02-22T23:27:26.032Z,1.00
2019-02-22T23:29:54.819Z,1.00
2019-02-22T23:32:27.613Z,1.00
2019-02-22T23:34:56.048Z,1.00
2019-02-22T23:37:43.963Z,1.00
2019-02-22T23:40:31.681Z,1.00
2019-02-22T23:43:02.973Z,1.00
2019-02-22T23:45:31.463Z,1.00
2019-02-22T23:47:59.931Z,1.00
2019-02-22T23:50:28.665Z,1.00
2019-02-22T23:52:57.091Z,1.00
2019-02-22T23:55:25.579Z,1.00
2019-02-22T23:57:54.121Z,1.00
